Portada
METAR-TAF:

Aeropuertos :

Santa Cruz de la Sierra, Bolivia

Aeropuerto El Trompillo

latitud: 17-48S, longitud: 063-11W, altitud: 418 m

Observación

El informe se hizo hace 9 horas y 15 minutos, a las 23:00 UTC
Viento 6 kt del norte-noroeste
Temperatura 20°C
Humedad 60%
Presión 1014 hPa
Visibilidad 10 km o más

METAR: SLET 012300Z 34006KT 9999 NSC 20/12 Q1014

Hora: 04:15 (08:15 UTC)

Pronóstico

El informe se hizo hace 3 horas y 48 minutos, a las 04:27 UTC
Pronóstico válido del 02 a las 06 UTC al 03 a las 06 UTC
Viento 6 kt del norte-noroeste
Visibilidad 10 km o más
Temporalmente
del 02 a las 15 UTC al 02 a las 18 UTC
Viento 18 kt del norte-noroeste
Escasas nubes a una altura de 2000 ft
Evolucionando progresivamente
del 03 a las 01 UTC al 03 a las 05 UTC
Viento 2 kt con dirección variable

TAF: SLET 020427Z 0206/0306 33006KT 9999 NSC TX28/0219Z TN12/0210Z TEMPO 0215/0218 34018KT FEW020 BECMG 0301/0305 VRB02KT

METAR-TAF

Observaciones y pronósticos meteorológicos de más de 4000 aeropuertos (mensajes METAR y TAF).

Los puntos amarillos y rojos representan las estaciones disponibles.

Ponga el ratón en el punto deseado para ver el nombre de la estación.

Haga clic para ver las observaciones y los pronósticos meteorológicos.

Para cambiar el mapa : haga clic en los botones verdes con una cruz de color negro para hacer un zoom, en el botón verde con un guión para alejar o en las flechas verdes para mapas adyacentes.


METAR-TAF: